VCCC/RML METAR and TAF weather

Enter ICAO airport designator
Station Type Date Time Source
VCCC METAR 2022/10/01 08:00 UTC NOAA

VCCC 010800Z 27010KT 9999 FEW016 FEW017TCU((SE/S/SW) 31/24 Q1009 A2980


Station Type Date Time Source
VCCC Decoded METAR 2022/10/01 08:00 UTC NOAA

Ratmalana, Sri Lanka (VCCC) 06-49N 079-53E 5M
Oct 01, 2022 - 04:00 AM EDT / 2022.10.01 0800 UTC
Wind: from the W (270 degrees) at 12 MPH (10 KT):0
Visibility: greater than 7 mile(s):0
Sky conditions: mostly clear
Weather: Towering cumulus clouds observed
Temperature: 87 F (31 C)
Heat index: 95.7 F (35.4 C):1
Dew Point: 75 F (24 C)
Relative Humidity: 66%
Pressure (altimeter): 29.8 in. Hg (1009 hPa)
ob: VCCC 010800Z 27010KT 9999 FEW016 FEW017TCU((SE/S/SW) 31/24 Q1009 A2980
cycle: 8

Station Type Date Time Source
VCCC TAF UTC NOAA

Error!

Example: see airport list